Marthasville, MO

6:39 PM CST on December 26, 2014 (GMT -0600)
Washington | Change Station
CLOSE
Current Station
Airport
Location: Washington,
Elevation: 486 ft
Nearby Weather Stations

Elev 486 ft 38.59 °N, 90.99 °W | Updated 44 minutes ago

Overcast
Overcast
55 °F
Feels Like 55 °F
N
13
Wind Variable Wind from SSE

Today
High -- | Low -- °F
--% Chance of Precip.
Yesterday
High -- | Low -- °F
Precip. -- in
7:20 AM 4:49 PM
Waxing Crescent, 30% visible
Pressure 29.99 in
Visibility 10.0 miles
Clouds Mostly Cloudy 3400 ft
Overcast 4600 ft
Dew Point 46 °F
Humidity 72%
Rainfall 0.00 in
Snow Depth Not available.
UV 0 out of 12
Pollen 4.60 out of 12
Air Quality Not available.
Flu Activity Not available.
METAR KFYG 262355Z AUTO 16011KT 10SM BKN034 OVC046 13/08 A2999 RMK AO2

More Conditions Fewer Conditions

Pressure 29.99 in
Visibility 10.0 miles
Clouds Mostly Cloudy 3400 ft
Overcast 4600 ft
Dew Point 46 °F
Humidity 72%
Rainfall 0.00 in
Snow Depth Not available.
UV 0 out of 12
Pollen 4.60 out of 12
Air Quality Not available.
Flu Activity Not available.
METAR KFYG 262355Z AUTO 16011KT 10SM BKN034 OVC046 13/08 A2999 RMK AO2

More Conditions Fewer Conditions

10-Day Weather Forecast

Almanac

Astronomy

Dec. 26, 2014 Rise Set
Actual Time
Civil Twilight
Nautical Twilight
Astronomical Twilight
Moon
Length of Visible Light
Length of Day
Tomorrow will be .
, % of the Moon is Illuminated

Today's Extremes

State Highs State Lows

Community

WunderPhotos

Upload Photos

1,780,795 photos uploaded!

WunderBlogs® & News

Nearby

Air Quality

  Air Quality AQ Index Pollutant
Not available.

Snow Depth

Station Depth Elevation

Earthquake Activity

City Distance Mag. Time & Date
Minimum magnitude displayed is 2.5.

Coastal Water Temperatures

Place Temperature

Nearby Weather Stations